sensor_id;sensor_type;location;lat;lon;timestamp;P1;durP1;ratioP1;P2;durP2;ratioP2
73337;SDS011;61575;49.908;35.556;2023-07-31T00:00:10;5.85;;;4.13;;
73337;SDS011;61575;49.908;35.556;2023-07-31T00:03:13;6.97;;;4.07;;
73337;SDS011;61575;49.908;35.556;2023-07-31T00:06:15;5.95;;;3.80;;
73337;SDS011;61575;49.908;35.556;2023-07-31T00:09:17;5.85;;;3.67;;
73337;SDS011;61575;49.908;35.556;2023-07-31T00:12:22;6.07;;;4.00;;
73337;SDS011;61575;49.908;35.556;2023-07-31T00:15:24;7.40;;;4.25;;
73337;SDS011;61575;49.908;35.556;2023-07-31T00:18:26;6.30;;;4.10;;
73337;SDS011;61575;49.908;35.556;2023-07-31T00:21:28;6.18;;;4.10;;
73337;SDS011;61575;49.908;35.556;2023-07-31T00:24:30;7.20;;;4.20;;
73337;SDS011;61575;49.908;35.556;2023-07-31T00:27:32;7.07;;;4.35;;
73337;SDS011;61575;49.908;35.556;2023-07-31T00:30:34;6.10;;;3.85;;
73337;SDS011;61575;49.908;35.556;2023-07-31T00:33:37;6.70;;;3.92;;
73337;SDS011;61575;49.908;35.556;2023-07-31T00:36:39;6.68;;;3.80;;
73337;SDS011;61575;49.908;35.556;2023-07-31T00:39:42;6.50;;;4.20;;
73337;SDS011;61575;49.908;35.556;2023-07-31T00:42:44;6.32;;;3.80;;
73337;SDS011;61575;49.908;35.556;2023-07-31T00:45:46;6.70;;;3.80;;
73337;SDS011;61575;49.908;35.556;2023-07-31T00:48:48;7.15;;;3.60;;
73337;SDS011;61575;49.908;35.556;2023-07-31T00:51:52;6.45;;;3.72;;
73337;SDS011;61575;49.908;35.556;2023-07-31T00:54:56;5.60;;;3.60;;
73337;SDS011;61575;49.908;35.556;2023-07-31T00:57:58;6.35;;;3.47;;
73337;SDS011;61575;49.908;35.556;2023-07-31T01:01:00;5.35;;;3.17;;
73337;SDS011;61575;49.908;35.556;2023-07-31T01:04:02;5.90;;;3.40;;
73337;SDS011;61575;49.908;35.556;2023-07-31T01:10:26;5.47;;;3.38;;
73337;SDS011;61575;49.908;35.556;2023-07-31T01:13:36;6.18;;;3.42;;
73337;SDS011;61575;49.908;35.556;2023-07-31T01:16:38;5.40;;;3.47;;
73337;SDS011;61575;49.908;35.556;2023-07-31T01:19:41;6.03;;;3.47;;
73337;SDS011;61575;49.908;35.556;2023-07-31T01:26:12;5.10;;;3.40;;
73337;SDS011;61575;49.908;35.556;2023-07-31T01:29:25;6.05;;;3.30;;
73337;SDS011;61575;49.908;35.556;2023-07-31T01:32:33;5.82;;;3.25;;
73337;SDS011;61575;49.908;35.556;2023-07-31T01:35:37;5.63;;;3.22;;
73337;SDS011;61575;49.908;35.556;2023-07-31T01:38:40;5.53;;;3.33;;
73337;SDS011;61575;49.908;35.556;2023-07-31T01:41:42;5.45;;;3.20;;
73337;SDS011;61575;49.908;35.556;2023-07-31T01:44:44;4.72;;;3.13;;
73337;SDS011;61575;49.908;35.556;2023-07-31T01:47:46;5.35;;;3.33;;
73337;SDS011;61575;49.908;35.556;2023-07-31T01:50:48;4.72;;;3.13;;
73337;SDS011;61575;49.908;35.556;2023-07-31T01:53:51;5.53;;;3.40;;
73337;SDS011;61575;49.908;35.556;2023-07-31T01:56:52;6.05;;;3.45;;
73337;SDS011;61575;49.908;35.556;2023-07-31T01:59:54;4.47;;;3.20;;
73337;SDS011;61575;49.908;35.556;2023-07-31T02:02:56;5.03;;;3.30;;
73337;SDS011;61575;49.908;35.556;2023-07-31T02:05:59;5.28;;;3.22;;
73337;SDS011;61575;49.908;35.556;2023-07-31T02:09:01;5.13;;;3.13;;
73337;SDS011;61575;49.908;35.556;2023-07-31T02:12:06;4.60;;;3.20;;
73337;SDS011;61575;49.908;35.556;2023-07-31T02:15:10;5.50;;;3.25;;
73337;SDS011;61575;49.908;35.556;2023-07-31T02:18:12;5.85;;;3.97;;
73337;SDS011;61575;49.908;35.556;2023-07-31T02:21:14;5.70;;;3.53;;
73337;SDS011;61575;49.908;35.556;2023-07-31T02:24:16;5.20;;;3.67;;
73337;SDS011;61575;49.908;35.556;2023-07-31T02:27:18;6.28;;;3.83;;
73337;SDS011;61575;49.908;35.556;2023-07-31T02:30:20;6.55;;;4.15;;
73337;SDS011;61575;49.908;35.556;2023-07-31T02:33:22;5.82;;;3.80;;
73337;SDS011;61575;49.908;35.556;2023-07-31T02:36:24;5.65;;;3.53;;
73337;SDS011;61575;49.908;35.556;2023-07-31T02:39:26;5.70;;;3.67;;
73337;SDS011;61575;49.908;35.556;2023-07-31T02:42:28;6.03;;;4.00;;
73337;SDS011;61575;49.908;35.556;2023-07-31T02:45:30;5.40;;;3.80;;
73337;SDS011;61575;49.908;35.556;2023-07-31T02:48:32;8.13;;;4.20;;
73337;SDS011;61575;49.908;35.556;2023-07-31T02:51:34;6.03;;;3.88;;
73337;SDS011;61575;49.908;35.556;2023-07-31T02:54:36;5.30;;;3.60;;
73337;SDS011;61575;49.908;35.556;2023-07-31T02:57:38;5.60;;;3.92;;
73337;SDS011;61575;49.908;35.556;2023-07-31T03:00:43;6.50;;;4.25;;
73337;SDS011;61575;49.908;35.556;2023-07-31T03:03:45;5.80;;;3.90;;
73337;SDS011;61575;49.908;35.556;2023-07-31T03:06:47;6.53;;;4.03;;
73337;SDS011;61575;49.908;35.556;2023-07-31T03:09:49;6.25;;;4.10;;
73337;SDS011;61575;49.908;35.556;2023-07-31T03:12:51;5.90;;;3.90;;
73337;SDS011;61575;49.908;35.556;2023-07-31T03:15:53;7.03;;;4.28;;
73337;SDS011;61575;49.908;35.556;2023-07-31T03:18:55;6.03;;;3.80;;
73337;SDS011;61575;49.908;35.556;2023-07-31T03:21:57;6.45;;;3.53;;
73337;SDS011;61575;49.908;35.556;2023-07-31T03:25:00;5.53;;;3.58;;
73337;SDS011;61575;49.908;35.556;2023-07-31T03:28:05;6.82;;;3.70;;
73337;SDS011;61575;49.908;35.556;2023-07-31T03:31:07;6.22;;;3.95;;
73337;SDS011;61575;49.908;35.556;2023-07-31T03:34:10;5.47;;;3.95;;
73337;SDS011;61575;49.908;35.556;2023-07-31T03:37:12;7.63;;;4.05;;
73337;SDS011;61575;49.908;35.556;2023-07-31T03:40:14;6.43;;;3.38;;
73337;SDS011;61575;49.908;35.556;2023-07-31T03:43:17;6.53;;;3.80;;
73337;SDS011;61575;49.908;35.556;2023-07-31T03:46:18;6.28;;;3.75;;
73337;SDS011;61575;49.908;35.556;2023-07-31T03:49:22;5.78;;;4.05;;
73337;SDS011;61575;49.908;35.556;2023-07-31T03:52:24;6.28;;;4.30;;
73337;SDS011;61575;49.908;35.556;2023-07-31T03:55:26;6.57;;;4.43;;
73337;SDS011;61575;49.908;35.556;2023-07-31T03:58:28;6.57;;;4.35;;
73337;SDS011;61575;49.908;35.556;2023-07-31T04:01:30;6.60;;;4.40;;
73337;SDS011;61575;49.908;35.556;2023-07-31T04:04:32;5.32;;;3.83;;
73337;SDS011;61575;49.908;35.556;2023-07-31T04:07:36;6.05;;;3.70;;
73337;SDS011;61575;49.908;35.556;2023-07-31T04:10:38;5.88;;;4.15;;
73337;SDS011;61575;49.908;35.556;2023-07-31T04:13:40;5.68;;;3.92;;
73337;SDS011;61575;49.908;35.556;2023-07-31T04:16:42;6.47;;;3.75;;
73337;SDS011;61575;49.908;35.556;2023-07-31T04:19:44;5.82;;;3.88;;
73337;SDS011;61575;49.908;35.556;2023-07-31T04:22:46;6.03;;;4.10;;
73337;SDS011;61575;49.908;35.556;2023-07-31T04:25:48;5.20;;;3.63;;
73337;SDS011;61575;49.908;35.556;2023-07-31T04:28:50;6.75;;;4.32;;
73337;SDS011;61575;49.908;35.556;2023-07-31T04:31:52;6.93;;;4.53;;
73337;SDS011;61575;49.908;35.556;2023-07-31T04:34:54;6.72;;;4.07;;
73337;SDS011;61575;49.908;35.556;2023-07-31T04:37:56;9.52;;;4.82;;
73337;SDS011;61575;49.908;35.556;2023-07-31T04:40:58;6.90;;;4.40;;
73337;SDS011;61575;49.908;35.556;2023-07-31T04:44:00;6.65;;;4.53;;
73337;SDS011;61575;49.908;35.556;2023-07-31T04:47:03;8.23;;;4.93;;
73337;SDS011;61575;49.908;35.556;2023-07-31T04:50:05;6.85;;;4.57;;
73337;SDS011;61575;49.908;35.556;2023-07-31T04:56:09;6.20;;;4.43;;
73337;SDS011;61575;49.908;35.556;2023-07-31T04:59:11;6.28;;;4.30;;
73337;SDS011;61575;49.908;35.556;2023-07-31T05:02:13;6.65;;;4.30;;
73337;SDS011;61575;49.908;35.556;2023-07-31T05:05:15;7.85;;;4.78;;
73337;SDS011;61575;49.908;35.556;2023-07-31T05:08:17;6.65;;;4.57;;
73337;SDS011;61575;49.908;35.556;2023-07-31T05:11:19;7.60;;;5.00;;
73337;SDS011;61575;49.908;35.556;2023-07-31T05:14:21;7.00;;;4.97;;
73337;SDS011;61575;49.908;35.556;2023-07-31T05:17:23;7.35;;;4.95;;
73337;SDS011;61575;49.908;35.556;2023-07-31T05:20:25;6.85;;;4.72;;
73337;SDS011;61575;49.908;35.556;2023-07-31T05:23:27;8.98;;;5.15;;
73337;SDS011;61575;49.908;35.556;2023-07-31T05:26:29;6.57;;;4.90;;
73337;SDS011;61575;49.908;35.556;2023-07-31T05:29:31;6.78;;;4.97;;
73337;SDS011;61575;49.908;35.556;2023-07-31T05:32:33;8.60;;;4.57;;
73337;SDS011;61575;49.908;35.556;2023-07-31T05:35:34;5.70;;;4.22;;
73337;SDS011;61575;49.908;35.556;2023-07-31T05:38:37;5.70;;;4.15;;
73337;SDS011;61575;49.908;35.556;2023-07-31T05:41:40;6.57;;;4.30;;
73337;SDS011;61575;49.908;35.556;2023-07-31T05:44:42;7.05;;;4.38;;
73337;SDS011;61575;49.908;35.556;2023-07-31T05:47:45;6.63;;;4.32;;
73337;SDS011;61575;49.908;35.556;2023-07-31T05:50:47;7.47;;;4.80;;
73337;SDS011;61575;49.908;35.556;2023-07-31T05:53:49;7.13;;;4.88;;
73337;SDS011;61575;49.908;35.556;2023-07-31T05:56:51;6.32;;;4.13;;
73337;SDS011;61575;49.908;35.556;2023-07-31T05:59:53;7.43;;;4.57;;
73337;SDS011;61575;49.908;35.556;2023-07-31T06:02:55;6.68;;;4.47;;
73337;SDS011;61575;49.908;35.556;2023-07-31T06:05:57;7.18;;;4.57;;
73337;SDS011;61575;49.908;35.556;2023-07-31T06:08:59;7.13;;;4.85;;
73337;SDS011;61575;49.908;35.556;2023-07-31T06:12:00;7.05;;;4.78;;
73337;SDS011;61575;49.908;35.556;2023-07-31T06:15:02;6.22;;;4.40;;
73337;SDS011;61575;49.908;35.556;2023-07-31T06:18:05;6.40;;;4.47;;
73337;SDS011;61575;49.908;35.556;2023-07-31T06:21:09;6.93;;;4.60;;
73337;SDS011;61575;49.908;35.556;2023-07-31T06:24:12;5.97;;;4.20;;
73337;SDS011;61575;49.908;35.556;2023-07-31T06:30:16;6.80;;;4.57;;
73337;SDS011;61575;49.908;35.556;2023-07-31T06:33:18;6.80;;;4.13;;
73337;SDS011;61575;49.908;35.556;2023-07-31T06:36:20;6.57;;;4.50;;
73337;SDS011;61575;49.908;35.556;2023-07-31T06:39:22;6.68;;;4.50;;
73337;SDS011;61575;49.908;35.556;2023-07-31T06:42:24;6.55;;;4.43;;
73337;SDS011;61575;49.908;35.556;2023-07-31T06:45:26;6.95;;;4.53;;
73337;SDS011;61575;49.908;35.556;2023-07-31T06:48:28;6.18;;;4.28;;
73337;SDS011;61575;49.908;35.556;2023-07-31T06:51:30;5.95;;;3.92;;
73337;SDS011;61575;49.908;35.556;2023-07-31T06:54:35;5.75;;;3.88;;
73337;SDS011;61575;49.908;35.556;2023-07-31T06:57:37;5.72;;;3.85;;
73337;SDS011;61575;49.908;35.556;2023-07-31T07:00:39;6.40;;;4.05;;
73337;SDS011;61575;49.908;35.556;2023-07-31T07:03:41;7.25;;;4.15;;
73337;SDS011;61575;49.908;35.556;2023-07-31T07:06:42;5.90;;;4.18;;
73337;SDS011;61575;49.908;35.556;2023-07-31T07:09:44;6.00;;;3.70;;
73337;SDS011;61575;49.908;35.556;2023-07-31T07:12:47;8.48;;;4.43;;
73337;SDS011;61575;49.908;35.556;2023-07-31T07:15:50;5.53;;;3.65;;
73337;SDS011;61575;49.908;35.556;2023-07-31T07:18:53;5.80;;;3.75;;
73337;SDS011;61575;49.908;35.556;2023-07-31T07:22:05;5.07;;;3.45;;
73337;SDS011;61575;49.908;35.556;2023-07-31T07:28:09;6.03;;;3.88;;
73337;SDS011;61575;49.908;35.556;2023-07-31T07:31:11;8.13;;;4.53;;
73337;SDS011;61575;49.908;35.556;2023-07-31T07:34:13;7.07;;;4.55;;
73337;SDS011;61575;49.908;35.556;2023-07-31T07:37:15;8.68;;;4.78;;
73337;SDS011;61575;49.908;35.556;2023-07-31T07:40:18;8.80;;;4.88;;
73337;SDS011;61575;49.908;35.556;2023-07-31T07:43:20;7.68;;;4.65;;
73337;SDS011;61575;49.908;35.556;2023-07-31T07:46:22;6.93;;;4.47;;
73337;SDS011;61575;49.908;35.556;2023-07-31T07:49:24;6.68;;;4.03;;
73337;SDS011;61575;49.908;35.556;2023-07-31T07:52:26;5.57;;;3.83;;
73337;SDS011;61575;49.908;35.556;2023-07-31T07:55:29;5.63;;;3.90;;
73337;SDS011;61575;49.908;35.556;2023-07-31T07:58:31;6.78;;;3.88;;
73337;SDS011;61575;49.908;35.556;2023-07-31T08:01:33;4.97;;;3.42;;
73337;SDS011;61575;49.908;35.556;2023-07-31T08:04:35;5.82;;;3.63;;
73337;SDS011;61575;49.908;35.556;2023-07-31T08:10:39;5.35;;;3.55;;
73337;SDS011;61575;49.908;35.556;2023-07-31T08:13:40;5.45;;;3.50;;
73337;SDS011;61575;49.908;35.556;2023-07-31T08:19:44;4.93;;;3.20;;
73337;SDS011;61575;49.908;35.556;2023-07-31T08:22:47;5.45;;;3.58;;
73337;SDS011;61575;49.908;35.556;2023-07-31T08:25:50;4.78;;;3.58;;
73337;SDS011;61575;49.908;35.556;2023-07-31T08:28:52;4.75;;;3.53;;
73337;SDS011;61575;49.908;35.556;2023-07-31T08:34:56;5.07;;;3.50;;
73337;SDS011;61575;49.908;35.556;2023-07-31T08:37:57;5.45;;;3.70;;
73337;SDS011;61575;49.908;35.556;2023-07-31T08:44:01;4.88;;;3.08;;
73337;SDS011;61575;49.908;35.556;2023-07-31T08:47:03;5.03;;;2.85;;
73337;SDS011;61575;49.908;35.556;2023-07-31T08:50:06;4.60;;;3.00;;
73337;SDS011;61575;49.908;35.556;2023-07-31T08:53:08;4.25;;;2.90;;
73337;SDS011;61575;49.908;35.556;2023-07-31T08:56:11;4.57;;;2.60;;
73337;SDS011;61575;49.908;35.556;2023-07-31T08:59:14;4.20;;;2.80;;
73337;SDS011;61575;49.908;35.556;2023-07-31T09:02:19;5.40;;;2.80;;
73337;SDS011;61575;49.908;35.556;2023-07-31T09:05:21;4.75;;;2.90;;
73337;SDS011;61575;49.908;35.556;2023-07-31T09:08:25;4.82;;;2.75;;
73337;SDS011;61575;49.908;35.556;2023-07-31T09:11:32;5.82;;;2.83;;
73337;SDS011;61575;49.908;35.556;2023-07-31T09:14:34;4.15;;;2.78;;
73337;SDS011;61575;49.908;35.556;2023-07-31T09:17:37;4.43;;;2.53;;
73337;SDS011;61575;49.908;35.556;2023-07-31T09:20:39;5.93;;;3.70;;
73337;SDS011;61575;49.908;35.556;2023-07-31T09:26:47;5.78;;;2.90;;
73337;SDS011;61575;49.908;35.556;2023-07-31T09:29:58;4.53;;;2.90;;
73337;SDS011;61575;49.908;35.556;2023-07-31T09:33:02;4.10;;;2.67;;
73337;SDS011;61575;49.908;35.556;2023-07-31T09:36:07;3.90;;;2.50;;
73337;SDS011;61575;49.908;35.556;2023-07-31T09:39:12;4.85;;;3.00;;
73337;SDS011;61575;49.908;35.556;2023-07-31T09:42:26;4.63;;;2.83;;
73337;SDS011;61575;49.908;35.556;2023-07-31T09:45:30;5.50;;;3.78;;
73337;SDS011;61575;49.908;35.556;2023-07-31T09:48:42;4.30;;;3.00;;
73337;SDS011;61575;49.908;35.556;2023-07-31T09:51:44;5.50;;;3.10;;
73337;SDS011;61575;49.908;35.556;2023-07-31T09:54:46;5.18;;;3.20;;
73337;SDS011;61575;49.908;35.556;2023-07-31T09:57:48;4.55;;;3.15;;
73337;SDS011;61575;49.908;35.556;2023-07-31T10:00:50;4.88;;;3.38;;
73337;SDS011;61575;49.908;35.556;2023-07-31T10:03:52;4.82;;;3.20;;
73337;SDS011;61575;49.908;35.556;2023-07-31T10:06:55;5.40;;;3.33;;
73337;SDS011;61575;49.908;35.556;2023-07-31T10:10:00;5.55;;;3.38;;
73337;SDS011;61575;49.908;35.556;2023-07-31T10:13:10;5.70;;;3.78;;
73337;SDS011;61575;49.908;35.556;2023-07-31T10:16:13;4.88;;;3.40;;
73337;SDS011;61575;49.908;35.556;2023-07-31T10:19:18;5.10;;;3.50;;
73337;SDS011;61575;49.908;35.556;2023-07-31T10:22:22;5.15;;;3.67;;
73337;SDS011;61575;49.908;35.556;2023-07-31T10:25:24;5.68;;;3.92;;
73337;SDS011;61575;49.908;35.556;2023-07-31T10:28:28;6.30;;;3.97;;
73337;SDS011;61575;49.908;35.556;2023-07-31T10:31:31;5.38;;;3.55;;
73337;SDS011;61575;49.908;35.556;2023-07-31T10:34:34;5.65;;;3.90;;
73337;SDS011;61575;49.908;35.556;2023-07-31T10:40:43;5.13;;;3.70;;
73337;SDS011;61575;49.908;35.556;2023-07-31T10:43:46;5.18;;;3.45;;
73337;SDS011;61575;49.908;35.556;2023-07-31T10:46:49;6.00;;;3.90;;
73337;SDS011;61575;49.908;35.556;2023-07-31T10:49:51;5.20;;;3.70;;
73337;SDS011;61575;49.908;35.556;2023-07-31T10:52:56;5.53;;;3.80;;
73337;SDS011;61575;49.908;35.556;2023-07-31T10:56:08;5.65;;;3.88;;
73337;SDS011;61575;49.908;35.556;2023-07-31T10:59:14;5.22;;;4.00;;
73337;SDS011;61575;49.908;35.556;2023-07-31T11:02:25;5.10;;;3.90;;
73337;SDS011;61575;49.908;35.556;2023-07-31T11:05:46;5.80;;;4.20;;
73337;SDS011;61575;49.908;35.556;2023-07-31T11:08:52;6.57;;;4.30;;
73337;SDS011;61575;49.908;35.556;2023-07-31T11:11:54;5.97;;;4.35;;
73337;SDS011;61575;49.908;35.556;2023-07-31T11:14:57;6.85;;;4.97;;
73337;SDS011;61575;49.908;35.556;2023-07-31T11:18:00;7.13;;;4.97;;
73337;SDS011;61575;49.908;35.556;2023-07-31T11:21:05;6.40;;;4.90;;
73337;SDS011;61575;49.908;35.556;2023-07-31T11:24:07;6.95;;;5.10;;
73337;SDS011;61575;49.908;35.556;2023-07-31T11:27:09;7.05;;;5.20;;
73337;SDS011;61575;49.908;35.556;2023-07-31T11:30:11;6.88;;;5.30;;
73337;SDS011;61575;49.908;35.556;2023-07-31T11:33:13;6.55;;;5.00;;
73337;SDS011;61575;49.908;35.556;2023-07-31T11:36:16;6.93;;;5.63;;
73337;SDS011;61575;49.908;35.556;2023-07-31T11:39:20;6.45;;;5.18;;
73337;SDS011;61575;49.908;35.556;2023-07-31T11:42:22;6.38;;;5.18;;
73337;SDS011;61575;49.908;35.556;2023-07-31T11:45:24;6.53;;;5.00;;
73337;SDS011;61575;49.908;35.556;2023-07-31T11:48:34;6.85;;;5.47;;
73337;SDS011;61575;49.908;35.556;2023-07-31T11:51:38;6.60;;;4.88;;
73337;SDS011;61575;49.908;35.556;2023-07-31T11:54:40;7.50;;;5.25;;
73337;SDS011;61575;49.908;35.556;2023-07-31T11:57:42;6.57;;;5.10;;
73337;SDS011;61575;49.908;35.556;2023-07-31T12:00:46;6.72;;;4.80;;
73337;SDS011;61575;49.908;35.556;2023-07-31T12:03:49;6.47;;;5.22;;
73337;SDS011;61575;49.908;35.556;2023-07-31T12:06:52;7.20;;;5.57;;
73337;SDS011;61575;49.908;35.556;2023-07-31T12:09:59;7.00;;;5.43;;
73337;SDS011;61575;49.908;35.556;2023-07-31T12:13:10;6.03;;;4.70;;
73337;SDS011;61575;49.908;35.556;2023-07-31T12:16:22;6.03;;;4.93;;
73337;SDS011;61575;49.908;35.556;2023-07-31T12:19:29;6.72;;;5.10;;
73337;SDS011;61575;49.908;35.556;2023-07-31T12:22:32;5.95;;;4.28;;
73337;SDS011;61575;49.908;35.556;2023-07-31T12:25:34;5.93;;;4.60;;
73337;SDS011;61575;49.908;35.556;2023-07-31T12:31:49;6.50;;;5.05;;
73337;SDS011;61575;49.908;35.556;2023-07-31T12:34:51;7.53;;;5.32;;
73337;SDS011;61575;49.908;35.556;2023-07-31T12:37:53;7.75;;;5.82;;
73337;SDS011;61575;49.908;35.556;2023-07-31T12:40:55;7.55;;;5.35;;
73337;SDS011;61575;49.908;35.556;2023-07-31T12:43:57;13.77;;;8.82;;
73337;SDS011;61575;49.908;35.556;2023-07-31T12:46:59;9.70;;;6.07;;
73337;SDS011;61575;49.908;35.556;2023-07-31T12:50:01;6.57;;;5.20;;
73337;SDS011;61575;49.908;35.556;2023-07-31T12:53:04;6.82;;;4.90;;
73337;SDS011;61575;49.908;35.556;2023-07-31T12:56:07;7.68;;;4.93;;
73337;SDS011;61575;49.908;35.556;2023-07-31T12:59:10;6.70;;;4.80;;
73337;SDS011;61575;49.908;35.556;2023-07-31T13:02:12;6.85;;;5.10;;
73337;SDS011;61575;49.908;35.556;2023-07-31T13:05:14;6.47;;;5.10;;
73337;SDS011;61575;49.908;35.556;2023-07-31T13:08:16;6.55;;;4.90;;
73337;SDS011;61575;49.908;35.556;2023-07-31T13:11:19;6.53;;;5.03;;
73337;SDS011;61575;49.908;35.556;2023-07-31T13:14:21;6.70;;;5.50;;
73337;SDS011;61575;49.908;35.556;2023-07-31T13:17:23;5.95;;;4.75;;
73337;SDS011;61575;49.908;35.556;2023-07-31T13:20:25;7.90;;;5.80;;
73337;SDS011;61575;49.908;35.556;2023-07-31T13:23:27;8.05;;;6.07;;
73337;SDS011;61575;49.908;35.556;2023-07-31T13:26:29;8.48;;;6.40;;
73337;SDS011;61575;49.908;35.556;2023-07-31T13:29:31;8.77;;;6.82;;
73337;SDS011;61575;49.908;35.556;2023-07-31T13:32:33;8.65;;;6.40;;
73337;SDS011;61575;49.908;35.556;2023-07-31T13:35:40;7.88;;;6.40;;
73337;SDS011;61575;49.908;35.556;2023-07-31T13:38:42;7.78;;;6.47;;
73337;SDS011;61575;49.908;35.556;2023-07-31T13:41:44;9.25;;;6.30;;
73337;SDS011;61575;49.908;35.556;2023-07-31T13:44:46;7.75;;;6.00;;
73337;SDS011;61575;49.908;35.556;2023-07-31T13:47:50;7.60;;;6.22;;
73337;SDS011;61575;49.908;35.556;2023-07-31T13:50:52;7.63;;;6.10;;
73337;SDS011;61575;49.908;35.556;2023-07-31T13:53:54;8.55;;;5.80;;
73337;SDS011;61575;49.908;35.556;2023-07-31T13:56:56;7.47;;;5.70;;
73337;SDS011;61575;49.908;35.556;2023-07-31T13:59:58;7.05;;;5.25;;
73337;SDS011;61575;49.908;35.556;2023-07-31T14:03:00;8.82;;;5.20;;
73337;SDS011;61575;49.908;35.556;2023-07-31T14:06:03;7.72;;;4.93;;
73337;SDS011;61575;49.908;35.556;2023-07-31T14:09:05;6.82;;;5.07;;
73337;SDS011;61575;49.908;35.556;2023-07-31T14:12:08;7.50;;;5.82;;
73337;SDS011;61575;49.908;35.556;2023-07-31T14:15:10;7.63;;;5.70;;
73337;SDS011;61575;49.908;35.556;2023-07-31T14:18:12;7.38;;;5.20;;
73337;SDS011;61575;49.908;35.556;2023-07-31T14:21:15;7.05;;;5.05;;
73337;SDS011;61575;49.908;35.556;2023-07-31T14:24:17;6.53;;;4.68;;
73337;SDS011;61575;49.908;35.556;2023-07-31T14:27:19;6.30;;;4.50;;
73337;SDS011;61575;49.908;35.556;2023-07-31T14:30:21;6.82;;;4.60;;
73337;SDS011;61575;49.908;35.556;2023-07-31T14:33:23;6.72;;;4.70;;
73337;SDS011;61575;49.908;35.556;2023-07-31T14:36:25;6.70;;;4.75;;
73337;SDS011;61575;49.908;35.556;2023-07-31T14:39:27;6.63;;;4.60;;
73337;SDS011;61575;49.908;35.556;2023-07-31T14:42:28;6.53;;;4.25;;
73337;SDS011;61575;49.908;35.556;2023-07-31T14:45:30;8.57;;;4.80;;
73337;SDS011;61575;49.908;35.556;2023-07-31T14:48:32;5.25;;;3.85;;
73337;SDS011;61575;49.908;35.556;2023-07-31T14:51:34;7.85;;;4.45;;
73337;SDS011;61575;49.908;35.556;2023-07-31T14:54:36;5.68;;;4.30;;
73337;SDS011;61575;49.908;35.556;2023-07-31T14:57:38;6.05;;;4.60;;
73337;SDS011;61575;49.908;35.556;2023-07-31T15:00:40;7.35;;;4.18;;
73337;SDS011;61575;49.908;35.556;2023-07-31T15:03:42;6.80;;;4.93;;
73337;SDS011;61575;49.908;35.556;2023-07-31T15:06:44;6.32;;;4.53;;
73337;SDS011;61575;49.908;35.556;2023-07-31T15:09:46;7.03;;;4.45;;
73337;SDS011;61575;49.908;35.556;2023-07-31T15:12:48;6.43;;;4.57;;
73337;SDS011;61575;49.908;35.556;2023-07-31T15:15:50;6.82;;;4.50;;
73337;SDS011;61575;49.908;35.556;2023-07-31T15:18:52;6.03;;;4.55;;
73337;SDS011;61575;49.908;35.556;2023-07-31T15:21:54;5.90;;;4.60;;
73337;SDS011;61575;49.908;35.556;2023-07-31T15:24:56;5.95;;;4.18;;
73337;SDS011;61575;49.908;35.556;2023-07-31T15:27:58;7.15;;;4.63;;
73337;SDS011;61575;49.908;35.556;2023-07-31T15:31:00;6.57;;;4.88;;
73337;SDS011;61575;49.908;35.556;2023-07-31T15:34:02;6.78;;;4.57;;
73337;SDS011;61575;49.908;35.556;2023-07-31T15:37:04;7.93;;;5.53;;
73337;SDS011;61575;49.908;35.556;2023-07-31T15:40:07;11.18;;;6.78;;
73337;SDS011;61575;49.908;35.556;2023-07-31T15:43:09;14.00;;;7.40;;
73337;SDS011;61575;49.908;35.556;2023-07-31T15:46:11;10.82;;;6.18;;
73337;SDS011;61575;49.908;35.556;2023-07-31T15:49:15;8.55;;;5.53;;
73337;SDS011;61575;49.908;35.556;2023-07-31T15:52:19;6.82;;;5.30;;
73337;SDS011;61575;49.908;35.556;2023-07-31T15:55:22;8.43;;;5.18;;
73337;SDS011;61575;49.908;35.556;2023-07-31T15:58:25;6.53;;;4.60;;
73337;SDS011;61575;49.908;35.556;2023-07-31T16:01:27;6.63;;;4.70;;
73337;SDS011;61575;49.908;35.556;2023-07-31T16:04:29;6.53;;;4.30;;
73337;SDS011;61575;49.908;35.556;2023-07-31T16:07:31;6.20;;;4.30;;
73337;SDS011;61575;49.908;35.556;2023-07-31T16:10:33;6.82;;;4.38;;
73337;SDS011;61575;49.908;35.556;2023-07-31T16:13:35;5.10;;;3.70;;
73337;SDS011;61575;49.908;35.556;2023-07-31T16:16:37;6.40;;;4.35;;
73337;SDS011;61575;49.908;35.556;2023-07-31T16:19:40;6.78;;;4.75;;
73337;SDS011;61575;49.908;35.556;2023-07-31T16:25:44;6.15;;;4.43;;
73337;SDS011;61575;49.908;35.556;2023-07-31T16:31:48;6.68;;;4.28;;
73337;SDS011;61575;49.908;35.556;2023-07-31T16:34:58;6.55;;;4.80;;
73337;SDS011;61575;49.908;35.556;2023-07-31T16:38:00;6.72;;;4.82;;
73337;SDS011;61575;49.908;35.556;2023-07-31T16:44:04;6.82;;;5.03;;
73337;SDS011;61575;49.908;35.556;2023-07-31T16:47:06;6.50;;;4.90;;
73337;SDS011;61575;49.908;35.556;2023-07-31T16:50:09;8.85;;;5.47;;
73337;SDS011;61575;49.908;35.556;2023-07-31T16:53:11;7.35;;;5.22;;
73337;SDS011;61575;49.908;35.556;2023-07-31T16:59:17;8.70;;;5.88;;
73337;SDS011;61575;49.908;35.556;2023-07-31T17:02:20;6.63;;;4.53;;
73337;SDS011;61575;49.908;35.556;2023-07-31T17:05:22;7.43;;;5.00;;
73337;SDS011;61575;49.908;35.556;2023-07-31T17:08:25;7.28;;;5.13;;
73337;SDS011;61575;49.908;35.556;2023-07-31T17:14:29;6.05;;;4.78;;
73337;SDS011;61575;49.908;35.556;2023-07-31T17:20:33;7.25;;;5.30;;
73337;SDS011;61575;49.908;35.556;2023-07-31T17:26:36;8.70;;;5.38;;
73337;SDS011;61575;49.908;35.556;2023-07-31T17:29:38;8.63;;;5.55;;
73337;SDS011;61575;49.908;35.556;2023-07-31T17:35:43;10.35;;;5.40;;
73337;SDS011;61575;49.908;35.556;2023-07-31T17:38:45;9.15;;;5.80;;
73337;SDS011;61575;49.908;35.556;2023-07-31T17:41:47;12.55;;;5.93;;
73337;SDS011;61575;49.908;35.556;2023-07-31T17:44:50;12.38;;;6.22;;
73337;SDS011;61575;49.908;35.556;2023-07-31T17:47:53;13.32;;;6.25;;
73337;SDS011;61575;49.908;35.556;2023-07-31T17:50:55;11.90;;;6.18;;
73337;SDS011;61575;49.908;35.556;2023-07-31T17:53:57;13.68;;;5.50;;
73337;SDS011;61575;49.908;35.556;2023-07-31T17:56:59;8.10;;;5.95;;
73337;SDS011;61575;49.908;35.556;2023-07-31T18:00:01;8.88;;;5.60;;
73337;SDS011;61575;49.908;35.556;2023-07-31T18:03:07;11.48;;;5.75;;
73337;SDS011;61575;49.908;35.556;2023-07-31T18:06:14;9.60;;;6.65;;
73337;SDS011;61575;49.908;35.556;2023-07-31T18:09:16;10.40;;;6.97;;
73337;SDS011;61575;49.908;35.556;2023-07-31T18:15:20;7.90;;;6.25;;
73337;SDS011;61575;49.908;35.556;2023-07-31T18:21:24;8.80;;;6.50;;
73337;SDS011;61575;49.908;35.556;2023-07-31T18:24:26;9.38;;;6.32;;
73337;SDS011;61575;49.908;35.556;2023-07-31T18:30:29;9.67;;;6.37;;
73337;SDS011;61575;49.908;35.556;2023-07-31T18:36:34;8.98;;;6.18;;
73337;SDS011;61575;49.908;35.556;2023-07-31T18:39:39;8.27;;;6.38;;
73337;SDS011;61575;49.908;35.556;2023-07-31T18:42:40;7.97;;;6.07;;
73337;SDS011;61575;49.908;35.556;2023-07-31T18:45:42;9.65;;;6.75;;
73337;SDS011;61575;49.908;35.556;2023-07-31T18:48:44;10.18;;;7.15;;
73337;SDS011;61575;49.908;35.556;2023-07-31T18:54:49;10.45;;;7.38;;
73337;SDS011;61575;49.908;35.556;2023-07-31T18:58:05;9.23;;;6.30;;
73337;SDS011;61575;49.908;35.556;2023-07-31T19:01:07;9.65;;;6.53;;
73337;SDS011;61575;49.908;35.556;2023-07-31T19:04:09;8.68;;;6.28;;
73337;SDS011;61575;49.908;35.556;2023-07-31T19:07:11;8.70;;;6.57;;
73337;SDS011;61575;49.908;35.556;2023-07-31T19:10:13;10.38;;;6.97;;
73337;SDS011;61575;49.908;35.556;2023-07-31T19:13:17;8.98;;;6.80;;
73337;SDS011;61575;49.908;35.556;2023-07-31T19:16:19;10.45;;;6.95;;
73337;SDS011;61575;49.908;35.556;2023-07-31T19:19:21;9.82;;;6.55;;